createdAt,value
2023-04-24T00:01:41.541Z,1.10
2023-04-24T00:04:11.896Z,0.90
2023-04-24T00:06:39.590Z,1.00
2023-04-24T00:09:06.785Z,1.00
2023-04-24T00:11:35.293Z,1.13
2023-04-24T00:14:02.506Z,0.98
2023-04-24T00:16:29.788Z,1.00
2023-04-24T00:18:56.993Z,0.98
2023-04-24T00:21:26.473Z,1.00
2023-04-24T00:23:54.093Z,1.00
2023-04-24T00:26:21.312Z,1.00
2023-04-24T00:28:49.941Z,1.10
2023-04-24T00:31:17.132Z,0.90
2023-04-24T00:33:44.316Z,1.30
2023-04-24T00:36:11.551Z,0.80
2023-04-24T00:38:38.731Z,1.00
2023-04-24T00:41:05.983Z,1.00
2023-04-24T00:43:33.160Z,1.10
2023-04-24T00:46:02.662Z,1.00
2023-04-24T00:48:29.986Z,1.10
2023-04-24T00:50:58.173Z,0.90
2023-04-24T00:53:25.661Z,0.90
2023-04-24T00:55:52.828Z,1.15
2023-04-24T00:58:20.374Z,1.02
2023-04-24T01:00:48.160Z,1.20
2023-04-24T01:03:16.729Z,1.10
2023-04-24T01:05:44.020Z,0.80
2023-04-24T01:08:12.508Z,1.00
2023-04-24T01:10:39.692Z,0.85
2023-04-24T01:13:06.899Z,0.98
2023-04-24T01:15:34.087Z,0.95
2023-04-24T01:18:01.411Z,0.93
2023-04-24T01:20:30.984Z,0.95
2023-04-24T01:22:59.516Z,1.05
2023-04-24T01:25:26.787Z,1.02
2023-04-24T01:27:53.999Z,0.93
2023-04-24T01:30:21.184Z,0.95
2023-04-24T01:32:48.401Z,0.90
2023-04-24T01:35:15.638Z,1.00
2023-04-24T01:37:42.830Z,0.90
2023-04-24T01:40:11.656Z,1.00
2023-04-24T01:42:38.836Z,1.00
2023-04-24T01:45:06.679Z,1.00
2023-04-24T01:47:33.942Z,0.90
2023-04-24T01:50:01.175Z,1.02
2023-04-24T01:52:29.778Z,0.90
2023-04-24T01:54:57.046Z,1.05
2023-04-24T01:57:25.698Z,0.90
2023-04-24T01:59:52.939Z,1.00
2023-04-24T02:02:22.174Z,0.85
2023-04-24T02:04:49.504Z,0.68
2023-04-24T02:07:16.717Z,0.80
2023-04-24T02:09:44.188Z,0.98
2023-04-24T02:12:11.562Z,0.90
2023-04-24T02:14:40.302Z,0.85
2023-04-24T02:17:07.561Z,1.00
2023-04-24T02:19:34.752Z,0.80
2023-04-24T02:22:01.974Z,0.98
2023-04-24T02:24:29.162Z,0.88
2023-04-24T02:26:56.699Z,0.90
2023-04-24T02:29:23.921Z,0.80
2023-04-24T02:31:52.488Z,0.88
2023-04-24T02:34:19.754Z,0.70
2023-04-24T02:36:46.948Z,0.63
2023-04-24T02:39:14.308Z,0.70
2023-04-24T02:41:41.535Z,0.75
2023-04-24T02:44:08.718Z,1.00
2023-04-24T02:46:35.921Z,0.90
2023-04-24T02:49:04.426Z,0.90
2023-04-24T02:51:31.797Z,0.70
2023-04-24T02:53:58.985Z,0.70
2023-04-24T02:56:26.192Z,0.80
2023-04-24T02:58:53.395Z,0.85
2023-04-24T03:01:20.644Z,0.70
2023-04-24T03:03:47.985Z,0.80
2023-04-24T03:06:16.795Z,0.70
2023-04-24T03:08:43.986Z,0.63
2023-04-24T03:11:11.214Z,0.77
2023-04-24T03:13:38.474Z,0.90
2023-04-24T03:16:06.618Z,0.80
2023-04-24T03:18:33.925Z,0.70
2023-04-24T03:21:01.178Z,0.90
2023-04-24T03:23:29.719Z,0.68
2023-04-24T03:25:56.894Z,0.80
2023-04-24T03:28:24.094Z,0.70
2023-04-24T03:30:51.269Z,0.73
2023-04-24T03:33:18.452Z,0.65
2023-04-24T03:35:45.919Z,0.65
2023-04-24T03:38:13.107Z,0.70
2023-04-24T03:40:41.598Z,0.70
2023-04-24T03:43:09.002Z,0.68
2023-04-24T03:45:36.213Z,0.60
2023-04-24T03:48:03.482Z,0.70
2023-04-24T03:50:30.984Z,0.60
2023-04-24T03:52:58.804Z,0.55
2023-04-24T03:55:26.045Z,0.70
2023-04-24T03:57:54.607Z,0.77
2023-04-24T04:00:21.988Z,0.60
2023-04-24T04:02:49.390Z,0.50
2023-04-24T04:05:16.807Z,0.60
2023-04-24T04:07:44.176Z,0.75
2023-04-24T04:10:11.713Z,0.70
2023-04-24T04:12:38.927Z,0.70
2023-04-24T04:15:08.227Z,0.80
2023-04-24T04:17:35.475Z,0.67
2023-04-24T04:20:06.089Z,0.70
2023-04-24T04:22:33.290Z,0.90
2023-04-24T04:25:00.484Z,0.70
2023-04-24T04:27:27.772Z,0.70
2023-04-24T04:29:54.993Z,0.65
2023-04-24T04:32:23.748Z,0.85
2023-04-24T04:34:54.163Z,0.60
2023-04-24T04:37:21.784Z,0.70
2023-04-24T04:39:49.007Z,0.70
2023-04-24T04:42:16.343Z,0.57
2023-04-24T04:44:43.854Z,0.60
2023-04-24T04:47:11.719Z,0.80
2023-04-24T04:49:40.676Z,0.90
2023-04-24T04:52:07.893Z,0.60
2023-04-24T04:54:35.395Z,0.70
2023-04-24T04:57:04.237Z,0.80
2023-04-24T04:59:31.614Z,0.80
2023-04-24T05:01:58.799Z,0.77
2023-04-24T05:04:26.559Z,0.68
2023-04-24T05:06:55.167Z,0.80
2023-04-24T05:09:22.350Z,0.70
2023-04-24T05:11:49.541Z,0.70
2023-04-24T05:14:18.761Z,0.80
2023-04-24T05:16:45.975Z,0.70
2023-04-24T05:19:14.816Z,0.82
2023-04-24T05:21:42.110Z,0.82
2023-04-24T05:24:10.627Z,0.80
2023-04-24T05:26:37.836Z,0.80
2023-04-24T05:29:05.047Z,0.70
2023-04-24T05:31:32.430Z,0.80
2023-04-24T05:33:59.642Z,0.82
2023-04-24T05:36:28.014Z,0.93
2023-04-24T05:38:55.434Z,1.00
2023-04-24T05:41:24.086Z,1.00
2023-04-24T05:43:52.051Z,0.90
2023-04-24T05:46:19.362Z,1.10
2023-04-24T05:48:46.598Z,0.90
2023-04-24T05:51:14.106Z,0.95
2023-04-24T05:53:41.338Z,0.90
2023-04-24T05:56:08.593Z,0.88
2023-04-24T05:58:38.303Z,0.98
2023-04-24T06:01:05.577Z,0.90
2023-04-24T06:03:33.840Z,1.20
2023-04-24T06:06:01.408Z,9.90
2023-04-24T06:08:28.607Z,10.45
2023-04-24T06:10:55.815Z,12.02
2023-04-24T06:13:23.053Z,19.60
2023-04-24T06:15:51.582Z,19.20
2023-04-24T06:18:18.821Z,16.77
2023-04-24T06:20:46.555Z,21.98
2023-04-24T06:23:13.814Z,19.77
2023-04-24T06:25:41.025Z,18.73
2023-04-24T06:28:08.254Z,18.08
2023-04-24T06:30:35.549Z,16.98
2023-04-24T06:33:18.781Z,15.27
2023-04-24T06:35:47.044Z,12.35
2023-04-24T06:38:14.266Z,11.77
2023-04-24T06:40:41.503Z,11.48
2023-04-24T06:43:09.053Z,12.48
2023-04-24T06:45:36.333Z,11.32
2023-04-24T06:48:04.896Z,10.80
2023-04-24T06:50:32.349Z,10.60
2023-04-24T06:52:59.555Z,10.20
2023-04-24T06:55:26.763Z,10.38
2023-04-24T06:57:53.978Z,9.98
2023-04-24T07:00:21.665Z,9.07
2023-04-24T07:02:48.978Z,8.43
2023-04-24T07:05:20.798Z,8.43
2023-04-24T07:07:48.061Z,7.85
2023-04-24T07:10:15.333Z,8.18
2023-04-24T07:12:42.910Z,8.35
2023-04-24T07:15:11.500Z,7.75
2023-04-24T07:17:39.341Z,7.80
2023-04-24T07:20:10.182Z,8.15
2023-04-24T07:22:38.978Z,7.03
2023-04-24T07:25:06.716Z,6.90
2023-04-24T07:27:33.979Z,7.03
2023-04-24T07:30:01.632Z,7.20
2023-04-24T07:32:28.864Z,5.68
2023-04-24T07:34:56.084Z,6.18
2023-04-24T07:37:23.264Z,6.85
2023-04-24T07:39:51.813Z,6.60
2023-04-24T07:42:18.995Z,7.05
2023-04-24T07:44:47.560Z,6.13
2023-04-24T07:47:15.688Z,5.53
2023-04-24T07:49:48.206Z,5.15
2023-04-24T07:52:15.386Z,5.70
2023-04-24T07:54:44.056Z,5.78
2023-04-24T07:57:12.778Z,6.05
2023-04-24T07:59:40.037Z,5.18
2023-04-24T08:02:07.353Z,5.05
2023-04-24T08:04:34.801Z,5.80
2023-04-24T08:07:02.117Z,5.60
2023-04-24T08:09:29.357Z,5.93
2023-04-24T08:11:56.652Z,5.38
2023-04-24T08:14:25.188Z,5.00
2023-04-24T08:16:52.400Z,4.90
2023-04-24T08:19:19.601Z,5.00
2023-04-24T08:21:47.219Z,5.63
2023-04-24T08:24:14.509Z,5.10
2023-04-24T08:26:41.713Z,5.03
2023-04-24T08:29:08.949Z,5.15
2023-04-24T08:31:37.497Z,4.78
2023-04-24T08:34:04.728Z,5.13
2023-04-24T08:36:39.976Z,5.22
2023-04-24T08:39:13.530Z,4.63
2023-04-24T08:41:40.739Z,5.25
2023-04-24T08:44:10.567Z,4.18
2023-04-24T08:46:39.311Z,3.40
2023-04-24T08:49:06.648Z,3.72
2023-04-24T08:51:33.827Z,5.25
2023-04-24T08:54:01.052Z,5.38
2023-04-24T08:58:48.514Z,5.97
2023-04-24T09:01:15.761Z,4.93
2023-04-24T09:03:44.521Z,4.75
2023-04-24T09:06:12.412Z,5.35
2023-04-24T09:08:39.631Z,3.58
2023-04-24T09:11:06.877Z,4.65
2023-04-24T09:13:34.375Z,4.10
2023-04-24T09:16:02.191Z,4.20
2023-04-24T09:18:29.413Z,4.70
2023-04-24T09:21:01.653Z,4.47
2023-04-24T09:23:29.515Z,5.05
2023-04-24T09:25:56.926Z,4.60
2023-04-24T09:28:27.144Z,3.90
2023-04-24T09:31:03.429Z,5.00
2023-04-24T09:33:31.360Z,3.75
2023-04-24T09:35:59.949Z,3.97
2023-04-24T09:38:33.719Z,3.80
2023-04-24T09:41:01.581Z,4.13
2023-04-24T09:43:28.797Z,4.80
2023-04-24T09:45:58.219Z,4.93
2023-04-24T09:48:31.750Z,5.13
2023-04-24T09:50:58.970Z,5.43
2023-04-24T09:53:26.342Z,4.30
2023-04-24T09:55:54.898Z,3.90
2023-04-24T09:58:26.679Z,4.78
2023-04-24T10:00:54.990Z,4.35
2023-04-24T10:03:22.572Z,4.13
2023-04-24T10:05:49.931Z,4.00
2023-04-24T10:08:17.115Z,3.75
2023-04-24T10:10:44.629Z,3.80
2023-04-24T10:13:13.332Z,3.53
2023-04-24T10:15:41.109Z,3.90
2023-04-24T10:18:08.462Z,4.55
2023-04-24T10:20:36.250Z,3.58
2023-04-24T10:23:03.460Z,3.72
2023-04-24T10:25:31.439Z,4.30
2023-04-24T10:28:00.454Z,3.97
2023-04-24T10:30:29.369Z,3.97
2023-04-24T10:32:56.763Z,4.00
2023-04-24T10:35:26.687Z,4.00
2023-04-24T10:37:56.913Z,3.65
2023-04-24T10:40:27.165Z,3.22
2023-04-24T10:42:56.795Z,3.33
2023-04-24T10:45:25.547Z,2.78
2023-04-24T10:47:54.731Z,3.40
2023-04-24T10:50:21.966Z,3.10
2023-04-24T10:52:49.351Z,3.28
2023-04-24T10:55:16.666Z,2.58
2023-04-24T10:57:58.801Z,2.85
2023-04-24T11:00:28.367Z,2.30
2023-04-24T11:02:58.078Z,2.88
2023-04-24T11:05:46.371Z,2.58
2023-04-24T11:08:16.783Z,2.60
2023-04-24T11:10:46.923Z,3.05
2023-04-24T11:15:43.042Z,2.60
2023-04-24T11:18:14.251Z,3.00
2023-04-24T11:20:43.490Z,2.95
2023-04-24T11:23:10.811Z,3.47
2023-04-24T11:25:39.330Z,2.97
2023-04-24T11:28:07.029Z,2.80
2023-04-24T11:30:34.429Z,2.38
2023-04-24T11:33:03.700Z,2.47
2023-04-24T11:35:31.599Z,2.53
2023-04-24T11:40:30.014Z,2.10
2023-04-24T11:43:00.263Z,2.45
2023-04-24T11:45:27.881Z,1.90
2023-04-24T11:47:55.338Z,2.28
2023-04-24T11:50:23.294Z,2.22
2023-04-24T11:52:50.846Z,2.42
2023-04-24T11:55:25.170Z,2.25
2023-04-24T11:57:52.812Z,2.58
2023-04-24T12:00:21.967Z,2.35
2023-04-24T12:02:49.612Z,2.43
2023-04-24T12:05:21.039Z,2.22
2023-04-24T12:07:48.501Z,2.63
2023-04-24T12:10:15.733Z,1.92
2023-04-24T12:12:42.960Z,2.35
2023-04-24T12:15:10.552Z,2.08
2023-04-24T12:17:39.078Z,2.78
2023-04-24T12:20:06.892Z,3.47
2023-04-24T12:22:47.252Z,2.35
2023-04-24T12:25:14.485Z,2.50
2023-04-24T12:27:41.694Z,2.60
2023-04-24T12:30:12.474Z,2.20
2023-04-24T12:32:43.962Z,2.22
2023-04-24T12:35:11.184Z,2.30
2023-04-24T12:37:40.391Z,2.50
2023-04-24T12:40:08.648Z,2.47
2023-04-24T12:42:36.205Z,2.00
2023-04-24T12:45:04.954Z,2.28
2023-04-24T12:47:32.308Z,2.13
2023-04-24T12:50:00.970Z,2.00
2023-04-24T12:52:28.502Z,1.65
2023-04-24T12:54:56.333Z,1.90
2023-04-24T12:57:23.521Z,1.50
2023-04-24T12:59:51.402Z,1.60
2023-04-24T13:02:19.492Z,1.52
2023-04-24T13:04:47.676Z,1.20
2023-04-24T13:07:16.256Z,1.35
2023-04-24T13:09:43.476Z,1.27
2023-04-24T13:12:10.801Z,1.40
2023-04-24T13:14:38.074Z,1.42
2023-04-24T13:17:05.353Z,1.10
2023-04-24T13:22:00.155Z,1.10
2023-04-24T13:24:27.391Z,1.05
2023-04-24T13:26:54.576Z,1.13
2023-04-24T13:29:21.790Z,1.10
2023-04-24T13:31:50.209Z,1.20
2023-04-24T13:34:17.524Z,1.30
2023-04-24T13:36:44.743Z,1.20
2023-04-24T13:39:13.268Z,1.10
2023-04-24T13:41:40.466Z,0.90
2023-04-24T13:44:07.879Z,1.00
2023-04-24T13:46:35.140Z,1.20
2023-04-24T13:49:04.430Z,1.55
2023-04-24T13:51:31.598Z,1.00
2023-04-24T13:53:58.832Z,1.20
2023-04-24T13:56:27.335Z,1.05
2023-04-24T13:58:55.662Z,1.30
2023-04-24T14:01:25.207Z,1.10
2023-04-24T14:03:53.090Z,1.40
2023-04-24T14:06:20.463Z,1.33
2023-04-24T14:08:47.687Z,1.20
2023-04-24T14:11:14.863Z,1.05
2023-04-24T14:13:43.634Z,1.17
2023-04-24T14:16:11.124Z,1.10
2023-04-24T14:18:38.342Z,1.20
2023-04-24T14:21:06.170Z,1.50
2023-04-24T14:23:33.422Z,1.30
2023-04-24T14:26:00.601Z,1.20
2023-04-24T14:28:28.049Z,1.23
2023-04-24T14:30:56.563Z,1.15
2023-04-24T14:33:23.778Z,1.20
2023-04-24T14:35:51.084Z,1.38
2023-04-24T14:38:18.284Z,1.70
2023-04-24T14:41:05.655Z,1.30
2023-04-24T14:43:33.569Z,1.48
2023-04-24T14:46:02.056Z,1.55
2023-04-24T14:48:29.252Z,1.17
2023-04-24T14:50:56.443Z,1.50
2023-04-24T14:53:23.663Z,1.52
2023-04-24T14:55:51.109Z,1.17
2023-04-24T14:58:18.322Z,1.25
2023-04-24T15:00:45.510Z,1.38
2023-04-24T15:03:14.172Z,1.70
2023-04-24T15:05:41.627Z,1.50
2023-04-24T15:08:08.971Z,1.98
2023-04-24T15:10:36.272Z,1.60
2023-04-24T15:13:03.505Z,1.95
2023-04-24T15:15:30.751Z,1.60
2023-04-24T15:17:57.996Z,1.70
2023-04-24T15:20:26.517Z,2.08
2023-04-24T15:22:53.705Z,1.83
2023-04-24T15:25:20.888Z,1.73
2023-04-24T15:27:48.097Z,1.80
2023-04-24T15:30:15.489Z,1.65
2023-04-24T15:32:42.855Z,1.70
2023-04-24T15:35:10.739Z,1.90
2023-04-24T15:37:39.394Z,1.70
2023-04-24T15:40:08.193Z,1.73
2023-04-24T15:42:35.920Z,1.73
2023-04-24T15:45:03.298Z,2.20
2023-04-24T15:47:30.608Z,1.70
2023-04-24T15:49:57.944Z,1.80
2023-04-24T15:52:25.238Z,2.03
2023-04-24T15:54:53.750Z,1.77
2023-04-24T15:57:21.859Z,1.90
2023-04-24T15:59:49.058Z,1.88
2023-04-24T16:02:18.881Z,2.05
2023-04-24T16:04:46.994Z,2.00
2023-04-24T16:07:14.484Z,1.77
2023-04-24T16:09:41.770Z,1.90
2023-04-24T16:12:10.595Z,1.90
2023-04-24T16:14:37.870Z,1.88
2023-04-24T16:17:05.145Z,1.80
2023-04-24T16:19:33.796Z,1.70
2023-04-24T16:22:01.001Z,1.90
2023-04-24T16:24:29.020Z,1.88
2023-04-24T16:26:56.309Z,1.90
2023-04-24T16:29:24.802Z,1.80
2023-04-24T16:31:52.159Z,1.75
2023-04-24T16:34:19.711Z,1.63
2023-04-24T16:36:46.899Z,1.75
2023-04-24T16:39:14.558Z,1.80
2023-04-24T16:41:41.804Z,1.55
2023-04-24T16:44:09.113Z,1.58
2023-04-24T16:46:37.785Z,1.88
2023-04-24T16:49:05.023Z,1.90
2023-04-24T16:51:33.599Z,1.90
2023-04-24T16:54:00.809Z,1.60
2023-04-24T16:56:28.029Z,1.90
2023-04-24T16:58:55.249Z,1.90
2023-04-24T17:01:22.474Z,1.60
2023-04-24T17:03:51.524Z,1.50
2023-04-24T17:06:18.810Z,1.70
2023-04-24T17:08:46.113Z,1.80
2023-04-24T17:11:13.424Z,1.50
2023-04-24T17:13:40.675Z,1.55
2023-04-24T17:16:07.877Z,1.40
2023-04-24T17:18:35.117Z,1.55
2023-04-24T17:21:03.618Z,1.80
2023-04-24T17:23:31.123Z,1.67
2023-04-24T17:25:58.340Z,1.55
2023-04-24T17:28:26.169Z,1.40
2023-04-24T17:30:55.387Z,1.50
2023-04-24T17:33:22.579Z,1.50
2023-04-24T17:35:50.400Z,1.70
2023-04-24T17:38:18.926Z,1.60
2023-04-24T17:40:46.743Z,1.38
2023-04-24T17:43:17.822Z,1.30
2023-04-24T17:45:45.331Z,1.50
2023-04-24T17:48:12.654Z,1.30
2023-04-24T17:50:39.869Z,1.48
2023-04-24T17:53:07.066Z,1.50
2023-04-24T17:55:35.854Z,1.38
2023-04-24T17:58:03.993Z,1.60
2023-04-24T18:00:31.221Z,1.50
2023-04-24T18:03:00.938Z,1.75
2023-04-24T18:05:28.835Z,1.60
2023-04-24T18:07:56.215Z,1.70
2023-04-24T18:10:23.406Z,1.50
2023-04-24T18:12:51.962Z,1.48
2023-04-24T18:15:19.241Z,1.85
2023-04-24T18:17:46.537Z,1.27
2023-04-24T18:20:14.078Z,1.70
2023-04-24T18:22:41.300Z,1.50
2023-04-24T18:25:09.565Z,1.60
2023-04-24T18:27:36.804Z,1.65
2023-04-24T18:30:05.980Z,1.35
2023-04-24T18:32:33.249Z,1.73
2023-04-24T18:35:00.538Z,1.70
2023-04-24T18:37:27.992Z,1.40
2023-04-24T18:39:56.260Z,1.52
2023-04-24T18:42:23.500Z,1.77
2023-04-24T18:44:51.203Z,1.40
2023-04-24T18:47:19.707Z,1.40
2023-04-24T18:49:46.887Z,1.83
2023-04-24T18:52:14.059Z,1.60
2023-04-24T18:54:41.293Z,1.65
2023-04-24T18:57:08.492Z,1.50
2023-04-24T18:59:35.730Z,1.48
2023-04-24T19:02:03.003Z,1.60
2023-04-24T19:04:31.545Z,1.88
2023-04-24T19:06:58.807Z,1.70
2023-04-24T19:09:25.995Z,1.58
2023-04-24T19:11:53.177Z,1.80
2023-04-24T19:14:22.496Z,1.90
2023-04-24T19:16:50.099Z,1.75
2023-04-24T19:19:17.464Z,1.90
2023-04-24T19:21:47.250Z,1.85
2023-04-24T19:24:14.439Z,2.22
2023-04-24T19:26:41.632Z,1.70
2023-04-24T19:29:08.826Z,1.90
2023-04-24T19:31:36.100Z,1.83
2023-04-24T19:34:03.429Z,1.65
2023-04-24T19:36:31.025Z,1.85
2023-04-24T19:38:59.541Z,2.45
2023-04-24T19:41:26.730Z,2.10
2023-04-24T19:43:53.952Z,2.03
2023-04-24T19:46:21.197Z,2.30
2023-04-24T19:48:48.719Z,1.70
2023-04-24T19:51:16.208Z,2.13
2023-04-24T19:53:43.438Z,2.22
2023-04-24T19:56:11.946Z,1.95
2023-04-24T19:58:39.154Z,1.80
2023-04-24T20:01:06.417Z,1.98
2023-04-24T20:03:34.555Z,2.00
2023-04-24T20:06:02.271Z,2.00
2023-04-24T20:08:29.527Z,2.03
2023-04-24T20:10:57.841Z,2.00
2023-04-24T20:13:27.904Z,2.00
2023-04-24T20:15:55.193Z,1.83
2023-04-24T20:18:22.554Z,1.73
2023-04-24T20:20:49.797Z,1.92
2023-04-24T20:23:17.022Z,1.83
2023-04-24T20:25:44.244Z,2.00
2023-04-24T20:28:11.910Z,2.10
2023-04-24T20:30:40.456Z,2.45
2023-04-24T20:33:07.701Z,2.10
2023-04-24T20:35:35.224Z,2.10
2023-04-24T20:38:03.120Z,2.00
2023-04-24T20:40:31.806Z,2.10
2023-04-24T20:42:59.096Z,2.63
2023-04-24T20:45:26.309Z,2.42
2023-04-24T20:47:54.977Z,2.17
2023-04-24T20:50:22.255Z,2.47
2023-04-24T20:52:49.480Z,2.22
2023-04-24T20:55:17.115Z,2.00
2023-04-24T20:57:44.403Z,2.38
2023-04-24T21:00:12.873Z,2.25
2023-04-24T21:02:40.272Z,2.30
2023-04-24T21:05:10.054Z,2.10
2023-04-24T21:07:37.290Z,2.42
2023-04-24T21:10:04.608Z,2.13
2023-04-24T21:12:31.806Z,2.03
2023-04-24T21:14:59.001Z,2.05
2023-04-24T21:17:26.313Z,2.30
2023-04-24T21:19:53.542Z,2.03
2023-04-24T21:22:22.566Z,2.20
2023-04-24T21:24:50.250Z,2.00
2023-04-24T21:27:17.470Z,1.90
2023-04-24T21:29:44.667Z,2.13
2023-04-24T21:32:11.950Z,2.00
2023-04-24T21:34:39.184Z,1.88
2023-04-24T21:37:06.362Z,2.13
2023-04-24T21:39:34.870Z,2.17
2023-04-24T21:42:02.736Z,2.13
2023-04-24T21:44:29.973Z,2.15
2023-04-24T21:46:57.157Z,1.92
2023-04-24T21:49:24.397Z,2.20
2023-04-24T21:51:51.593Z,2.10
2023-04-24T21:54:20.433Z,2.20
2023-04-24T21:56:48.943Z,1.95
2023-04-24T21:59:16.150Z,1.73
2023-04-24T22:01:44.245Z,1.98
2023-04-24T22:04:11.609Z,2.10
2023-04-24T22:06:38.959Z,2.38
2023-04-24T22:09:07.487Z,2.15
2023-04-24T22:11:36.413Z,1.98
2023-04-24T22:14:06.899Z,1.80
2023-04-24T22:16:35.142Z,2.20
2023-04-24T22:19:02.418Z,1.88
2023-04-24T22:21:29.619Z,2.30
2023-04-24T22:23:56.838Z,2.00
2023-04-24T22:26:24.040Z,1.98
2023-04-24T22:28:51.267Z,2.05
2023-04-24T22:31:19.793Z,2.22
2023-04-24T22:33:47.621Z,2.35
2023-04-24T22:36:15.094Z,2.00
2023-04-24T22:38:42.287Z,2.25
2023-04-24T22:41:09.542Z,2.03
2023-04-24T22:43:36.752Z,2.25
2023-04-24T22:46:04.236Z,2.15
2023-04-24T22:48:34.404Z,2.00
2023-04-24T22:51:01.748Z,2.65
2023-04-24T22:53:29.014Z,2.10
2023-04-24T22:55:56.370Z,2.60
2023-04-24T22:58:23.595Z,2.40
2023-04-24T23:00:50.948Z,2.45
2023-04-24T23:03:18.330Z,2.33
2023-04-24T23:05:47.081Z,2.17
2023-04-24T23:08:14.276Z,2.40
2023-04-24T23:10:42.007Z,2.33
2023-04-24T23:13:09.226Z,2.42
2023-04-24T23:15:36.438Z,2.58
2023-04-24T23:18:03.707Z,2.20
2023-04-24T23:20:31.174Z,2.33
2023-04-24T23:22:59.710Z,2.50
2023-04-24T23:25:26.902Z,2.50
2023-04-24T23:27:54.108Z,2.78
2023-04-24T23:30:21.327Z,2.83
2023-04-24T23:32:48.587Z,2.78
2023-04-24T23:35:15.893Z,2.60
2023-04-24T23:37:43.102Z,2.40
2023-04-24T23:40:11.785Z,2.63
2023-04-24T23:42:39.220Z,2.42
2023-04-24T23:45:06.921Z,2.65
2023-04-24T23:47:34.166Z,2.95
2023-04-24T23:50:01.425Z,2.55
2023-04-24T23:52:28.618Z,2.65
2023-04-24T23:54:55.831Z,2.83
2023-04-24T23:57:24.330Z,2.90
2023-04-24T23:59:51.572Z,2.60
